createdAt,value
2019-01-12T00:03:05.164Z,2.5
2019-01-12T00:08:07.628Z,2.5
2019-01-12T00:13:10.061Z,2.5
2019-01-12T00:18:12.545Z,2.5
2019-01-12T00:23:14.967Z,2.5
2019-01-12T00:28:17.518Z,2.5
2019-01-12T00:33:19.887Z,2.5
2019-01-12T00:38:22.378Z,2.5
2019-01-12T00:43:24.786Z,2.5
2019-01-12T00:53:29.708Z,2.4
2019-01-12T00:58:32.232Z,2.5
2019-01-12T01:03:34.624Z,2.4
2019-01-12T01:08:37.081Z,2.5
2019-01-12T01:13:39.689Z,2.5
2019-01-12T01:18:42.011Z,2.5
2019-01-12T01:23:44.468Z,2.5
2019-01-12T01:28:46.914Z,2.5
2019-01-12T01:33:49.441Z,2.5
2019-01-12T01:38:51.836Z,2.5
2019-01-12T01:43:54.280Z,2.6
2019-01-12T01:48:56.742Z,2.5
2019-01-12T01:53:59.178Z,2.5
2019-01-12T01:59:01.708Z,2.5
2019-01-12T02:04:04.109Z,2.5
2019-01-12T02:09:06.557Z,2.5
2019-01-12T02:14:09.019Z,2.5
2019-01-12T02:19:11.473Z,2.5
2019-01-12T02:24:13.936Z,2.5
2019-01-12T02:29:16.439Z,2.5
2019-01-12T02:34:18.840Z,2.6
2019-01-12T02:39:21.382Z,2.6
2019-01-12T02:44:23.767Z,2.5
2019-01-12T02:49:26.235Z,2.6
2019-01-12T02:54:28.749Z,2.6
2019-01-12T02:59:31.205Z,2.5
2019-01-12T03:04:33.599Z,2.6
2019-01-12T03:09:36.047Z,2.6
2019-01-12T03:14:38.496Z,2.5
2019-01-12T03:19:40.955Z,2.5
2019-01-12T03:24:43.447Z,2.6
2019-01-12T03:29:45.896Z,2.6
2019-01-12T03:34:48.322Z,2.6
2019-01-12T03:39:50.787Z,2.5
2019-01-12T03:44:53.252Z,2.5
2019-01-12T03:49:55.704Z,2.5
2019-01-12T03:54:58.227Z,2.6
2019-01-12T04:00:00.697Z,2.6
2019-01-12T04:05:03.067Z,2.6
2019-01-12T04:10:05.551Z,2.5
2019-01-12T04:15:07.995Z,2.5
2019-01-12T04:20:10.441Z,2.5
2019-01-12T04:25:13.003Z,2.5
2019-01-12T04:30:15.361Z,2.5
2019-01-12T04:35:17.810Z,2.5
2019-01-12T04:40:20.306Z,2.5
2019-01-12T04:45:22.771Z,2.5
2019-01-12T04:50:25.193Z,2.5
2019-01-12T04:55:27.643Z,2.4
2019-01-12T05:00:35.456Z,2.4
2019-01-12T05:05:32.695Z,2.4
2019-01-12T05:10:35.038Z,2.4
2019-01-12T05:15:37.523Z,2.4
2019-01-12T05:20:40.053Z,2.5
2019-01-12T05:25:48.827Z,2.5
2019-01-12T05:30:49.841Z,2.4
2019-01-12T05:35:47.349Z,2.5
2019-01-12T05:40:49.811Z,2.5
2019-01-12T05:45:52.305Z,2.5
2019-01-12T05:50:54.714Z,2.5
2019-01-12T05:55:59.112Z,2.5
2019-01-12T06:00:59.582Z,2.4
2019-01-12T06:06:02.056Z,2.4
2019-01-12T06:11:04.505Z,2.4
2019-01-12T06:16:06.977Z,2.5
2019-01-12T06:21:09.424Z,2.5
2019-01-12T06:26:11.865Z,2.5
2019-01-12T06:31:14.355Z,2.5
2019-01-12T06:36:16.798Z,2.5
2019-01-12T06:41:19.238Z,2.5
2019-01-12T06:46:21.701Z,2.5
2019-01-12T06:51:24.329Z,2.5
2019-01-12T06:56:26.607Z,2.5
2019-01-12T07:01:29.076Z,2.5
2019-01-12T07:06:31.537Z,2.6
2019-01-12T07:11:33.974Z,2.5
2019-01-12T07:16:36.435Z,2.5
2019-01-12T07:21:38.881Z,2.5
2019-01-12T07:26:41.402Z,2.5
2019-01-12T07:31:43.806Z,2.5
2019-01-12T07:36:46.322Z,2.6
2019-01-12T07:41:48.713Z,2.6
2019-01-12T07:46:51.265Z,2.7
2019-01-12T07:51:53.629Z,2.7
2019-01-12T07:56:56.093Z,2.8
2019-01-12T08:01:58.544Z,2.8
2019-01-12T08:07:01.003Z,2.8
2019-01-12T08:12:03.460Z,2.9
2019-01-12T08:17:05.925Z,2.9
2019-01-12T08:22:08.404Z,2.9
2019-01-12T08:27:10.823Z,2.9
2019-01-12T08:32:13.299Z,3
2019-01-12T08:37:15.742Z,3
2019-01-12T08:42:18.211Z,3
2019-01-12T08:47:20.674Z,3
2019-01-12T08:52:23.117Z,3
2019-01-12T08:57:25.562Z,2.9
2019-01-12T09:02:28.027Z,2.9
2019-01-12T09:07:30.487Z,2.8
2019-01-12T09:12:32.943Z,2.7
2019-01-12T09:17:35.411Z,2.7
2019-01-12T09:22:37.875Z,2.6
2019-01-12T09:27:40.303Z,2.7
2019-01-12T09:32:42.776Z,2.8
2019-01-12T09:37:45.235Z,2.9
2019-01-12T09:42:47.685Z,3.1
2019-01-12T09:47:50.175Z,3.3
2019-01-12T09:52:52.607Z,3.4
2019-01-12T09:57:55.151Z,3.5
2019-01-12T10:02:57.507Z,3.4
2019-01-12T10:07:59.962Z,3.3
2019-01-12T10:13:02.509Z,3.2
2019-01-12T10:18:05.027Z,3.1
2019-01-12T10:23:07.367Z,3.1
2019-01-12T10:28:09.807Z,3.1
2019-01-12T10:33:12.261Z,3.1
2019-01-12T10:38:14.714Z,3.3
2019-01-12T10:43:17.176Z,3.4
2019-01-12T10:48:19.638Z,3.6
2019-01-12T10:53:22.078Z,3.6
2019-01-12T10:58:24.539Z,3.8
2019-01-12T11:03:27.025Z,3.9
2019-01-12T11:08:29.470Z,4
2019-01-12T11:13:31.910Z,4.1
2019-01-12T11:18:34.381Z,4.3
2019-01-12T11:23:36.827Z,4.5
2019-01-12T11:28:39.302Z,4.5
2019-01-12T11:33:41.788Z,4.3
2019-01-12T11:38:44.233Z,4.3
2019-01-12T11:43:46.673Z,4.3
2019-01-12T11:48:49.150Z,4.3
2019-01-12T11:53:51.601Z,4.4
2019-01-12T11:58:54.074Z,4.4
2019-01-12T12:03:56.536Z,4.2
2019-01-12T12:08:58.975Z,4.1
2019-01-12T12:14:01.528Z,4.2
2019-01-12T12:19:03.910Z,4.1
2019-01-12T12:24:06.411Z,4.2
2019-01-12T12:29:08.817Z,4.3
2019-01-12T12:34:11.296Z,4.1
2019-01-12T12:39:13.756Z,4.1
2019-01-12T12:44:16.239Z,4
2019-01-12T12:49:18.665Z,4
2019-01-12T12:54:21.134Z,4
2019-01-12T12:59:23.721Z,3.8
2019-01-12T13:04:26.072Z,3.8
2019-01-12T13:09:28.563Z,3.8
2019-01-12T13:14:30.966Z,3.7
2019-01-12T13:19:33.409Z,3.8
2019-01-12T13:24:35.854Z,3.8
2019-01-12T13:29:38.311Z,3.7
2019-01-12T13:34:40.825Z,3.7
2019-01-12T13:39:43.238Z,3.7
2019-01-12T13:44:45.712Z,3.7
2019-01-12T13:49:48.197Z,3.7
2019-01-12T13:54:50.597Z,3.7
2019-01-12T13:59:53.052Z,3.6
2019-01-12T14:04:55.514Z,3.5
2019-01-12T14:09:57.961Z,3.5
2019-01-12T14:15:00.442Z,3.4
2019-01-12T14:20:02.923Z,3.4
2019-01-12T14:25:05.345Z,3.4
2019-01-12T14:30:07.785Z,3.4
2019-01-12T14:35:10.267Z,3.3
2019-01-12T14:40:12.730Z,3.3
2019-01-12T14:45:15.181Z,3.3
2019-01-12T14:50:17.629Z,3.3
2019-01-12T14:55:20.075Z,3.2
2019-01-12T15:00:22.579Z,3.2
2019-01-12T15:05:25.008Z,3
2019-01-12T15:10:27.456Z,2.9
2019-01-12T15:15:29.924Z,2.7
2019-01-12T15:20:32.440Z,2.5
2019-01-12T15:25:34.861Z,2.4
2019-01-12T15:30:37.287Z,2.3
2019-01-12T15:35:39.747Z,2.2
2019-01-12T15:40:42.191Z,2.2
2019-01-12T15:45:44.702Z,2.2
2019-01-12T15:50:47.116Z,2.1
2019-01-12T15:55:49.556Z,2.1
2019-01-12T16:00:52.139Z,2.1
2019-01-12T16:05:54.489Z,2.1
2019-01-12T16:10:56.934Z,2.1
2019-01-12T16:15:59.386Z,2.1
2019-01-12T16:21:01.935Z,2.1
2019-01-12T16:26:04.330Z,2.1
2019-01-12T16:31:06.801Z,2.1
2019-01-12T16:36:09.260Z,2.1
2019-01-12T16:41:11.671Z,2.2
2019-01-12T16:46:14.142Z,2.3
2019-01-12T16:51:16.596Z,2.4
2019-01-12T16:56:19.083Z,2.4
2019-01-12T17:01:21.508Z,2.4
2019-01-12T17:06:24.005Z,2.5
2019-01-12T17:11:26.430Z,2.5
2019-01-12T17:16:28.863Z,2.4
2019-01-12T17:21:31.407Z,2.4
2019-01-12T17:26:33.811Z,2.3
2019-01-12T17:31:36.244Z,2.3
2019-01-12T17:36:38.729Z,2.4
2019-01-12T17:41:41.169Z,2.4
2019-01-12T17:46:43.643Z,2.4
2019-01-12T17:51:46.098Z,2.4
2019-01-12T17:56:49.344Z,2.4
2019-01-12T18:01:50.986Z,2.4
2019-01-12T18:06:53.451Z,2.4
2019-01-12T18:11:55.885Z,2.4
2019-01-12T18:16:58.397Z,2.4
2019-01-12T18:22:00.817Z,2.3
2019-01-12T18:27:03.291Z,2.3
2019-01-12T18:32:05.722Z,2.2
2019-01-12T18:37:08.185Z,2.2
2019-01-12T18:42:10.636Z,2.1
2019-01-12T18:47:13.120Z,2.1
2019-01-12T18:52:15.555Z,2.2
2019-01-12T18:57:18.005Z,2.2
2019-01-12T19:02:20.469Z,2.2
2019-01-12T19:07:22.915Z,2.2
2019-01-12T19:12:25.381Z,2.3
2019-01-12T19:17:27.830Z,2.3
2019-01-12T19:22:30.293Z,2.3
2019-01-12T19:27:32.751Z,2.4
2019-01-12T19:32:35.202Z,2.4
2019-01-12T19:37:37.651Z,2.4
2019-01-12T19:42:40.140Z,2.3
2019-01-12T19:47:42.581Z,2.3
2019-01-12T19:52:45.058Z,2.3
2019-01-12T19:57:47.593Z,2.3
2019-01-12T20:02:50.076Z,2.3
2019-01-12T20:07:52.409Z,2.3
2019-01-12T20:12:54.872Z,2.4
2019-01-12T20:17:57.314Z,2.4
2019-01-12T20:22:59.781Z,2.4
2019-01-12T20:28:02.238Z,2.4
2019-01-12T20:33:04.693Z,2.4
2019-01-12T20:38:07.139Z,2.4
2019-01-12T20:43:09.598Z,2.4
2019-01-12T20:48:12.064Z,2.3
2019-01-12T20:53:14.526Z,2.4
2019-01-12T20:58:16.969Z,2.3
2019-01-12T21:03:19.431Z,2.4
2019-01-12T21:08:21.900Z,2.3
2019-01-12T21:13:24.338Z,2.2
2019-01-12T21:18:26.807Z,2.2
2019-01-12T21:23:29.277Z,2.1
2019-01-12T21:28:31.716Z,2.1
2019-01-12T21:33:34.173Z,2.2
2019-01-12T21:38:36.625Z,2.2
2019-01-12T21:43:39.095Z,2.3
2019-01-12T21:48:41.547Z,2.3
2019-01-12T21:53:44.008Z,2.3
2019-01-12T21:58:46.452Z,2.3
2019-01-12T22:03:48.927Z,2.3
2019-01-12T22:08:51.376Z,2.3
2019-01-12T22:13:53.816Z,2.3
2019-01-12T22:18:56.291Z,2.3
2019-01-12T22:23:58.799Z,2.3
2019-01-12T22:29:01.278Z,2.2
2019-01-12T22:34:03.716Z,2.2
2019-01-12T22:39:06.154Z,2.2
2019-01-12T22:44:08.569Z,2.2
2019-01-12T22:49:11.016Z,2.1
2019-01-12T22:54:13.480Z,2.1
2019-01-12T22:59:16.079Z,2.2
2019-01-12T23:04:18.404Z,2.2
2019-01-12T23:09:20.851Z,2.2
2019-01-12T23:14:23.331Z,2.2
2019-01-12T23:19:25.796Z,2.2
2019-01-12T23:24:28.220Z,2.1
2019-01-12T23:29:30.672Z,2
2019-01-12T23:34:33.142Z,2
2019-01-12T23:39:35.612Z,2
2019-01-12T23:44:38.060Z,2
2019-01-12T23:49:40.525Z,2
2019-01-12T23:54:42.957Z,2
2019-01-12T23:59:45.417Z,2
